Startpagina
METAR-TAF:

METAR-TAF

Vliegvelden :

Klawock, Alaska, Verenigde Staten

breedte: 55-35N, lengte: 133-05W, hoogte: 24 m

Actueel weer

Dit bericht is 29 minuten geleden gemaakt, om 19:53 UTC
Wind 8 kt uit het noordoosten
Temperatuur 9°C
Vochtigheid 49%
Druk 1028 hPa
Zicht: 16.1 km
Onbewolkt

METAR: PAKW 101953Z AUTO 04008KT 10SM CLR 09/M01 A3035 RMK SLP278 T00941011 TSNO VIA AUTODIAL

Tijdstip: 12:22 (20:22 UTC)

Verwachting

Dit bericht is 2 uur en het 56 minuten geleden gemaakt, om 17:26 UTC
Verwachting geldig van 10 om 18 UTC tot 11 om 18 UTC
Wind 9 kt uit het westen
Zicht: 10 km
Weinig wolken op 2500 ft
Van 11 om 0200 UTC
Wind 3 kt uit variabele richting
Zicht: 10 km
Onbewolkt

TAF: PAKW 101726Z 1018/1118 27009KT P6SM FEW025 FM110200 VRB03KT P6SM SKC AMD LTD TO CLD VIS AND WIND

Waarnemingen en weersverwachtingen van meer dan 4000 vliegvelden (METAR en TAF).

De beschikbare stations zijn de gele en rode punten op de kaart.

Ga met uw muis naar het station om de naam te zien.

Klik dan om waarnemingen en weersverwachtingen te zien.

kaart wijzigen: klik op de groene knoppen met een zwart kruis om in te zoomen, op de groene knop met een streepje om uit te zoomen of op de groene pijlen voor aangrenzende kaarten.


METAR-TAF: